createdAt,value
2023-05-02T00:01:05.193Z,8.30
2023-05-02T00:03:32.788Z,8.20
2023-05-02T00:06:02.664Z,8.10
2023-05-02T00:08:29.261Z,8.00
2023-05-02T00:10:55.957Z,8.00
2023-05-02T00:13:22.662Z,7.90
2023-05-02T00:15:49.541Z,7.90
2023-05-02T00:18:16.382Z,7.80
2023-05-02T00:20:43.222Z,7.80
2023-05-02T00:23:12.154Z,7.80
2023-05-02T00:25:44.305Z,7.70
2023-05-02T00:28:11.335Z,7.70
2023-05-02T00:30:42.214Z,7.60
2023-05-02T00:33:08.967Z,7.60
2023-05-02T00:35:35.594Z,7.50
2023-05-02T00:38:02.348Z,7.50
2023-05-02T00:40:28.980Z,7.50
2023-05-02T00:42:55.713Z,7.40
2023-05-02T00:45:22.461Z,7.40
2023-05-02T00:47:50.000Z,7.30
2023-05-02T00:50:17.736Z,7.40
2023-05-02T00:52:44.583Z,7.40
2023-05-02T00:55:11.446Z,7.30
2023-05-02T00:57:38.144Z,7.20
2023-05-02T01:00:05.163Z,7.20
2023-05-02T01:02:55.218Z,7.20
2023-05-02T01:05:25.649Z,7.20
2023-05-02T01:08:02.844Z,7.20
2023-05-02T01:10:39.103Z,7.20
2023-05-02T01:13:21.884Z,7.20
2023-05-02T01:15:49.379Z,7.20
2023-05-02T01:18:18.599Z,7.20
2023-05-02T01:20:46.631Z,7.10
2023-05-02T01:23:25.437Z,7.10
2023-05-02T01:25:55.207Z,7.10
2023-05-02T01:28:30.333Z,7.10
2023-05-02T01:30:57.106Z,7.10
2023-05-02T01:33:25.436Z,7.00
2023-05-02T01:35:52.959Z,7.00
2023-05-02T01:38:21.094Z,7.00
2023-05-02T01:40:50.389Z,7.00
2023-05-02T01:43:19.137Z,6.90
2023-05-02T01:45:47.276Z,6.90
2023-05-02T01:48:15.736Z,6.90
2023-05-02T01:50:44.622Z,6.80
2023-05-02T01:53:13.846Z,6.80
2023-05-02T01:55:41.932Z,6.80
2023-05-02T01:58:09.345Z,6.80
2023-05-02T02:00:37.455Z,6.70
2023-05-02T02:03:09.461Z,6.70
2023-05-02T02:05:37.137Z,6.70
2023-05-02T02:08:04.225Z,6.70
2023-05-02T02:10:35.367Z,6.70
2023-05-02T02:13:06.588Z,6.60
2023-05-02T02:15:38.313Z,6.60
2023-05-02T02:18:10.458Z,6.50
2023-05-02T02:20:37.846Z,6.60
2023-05-02T02:23:06.913Z,6.60
2023-05-02T02:25:34.149Z,6.50
2023-05-02T02:28:01.243Z,6.60
2023-05-02T02:30:28.037Z,6.50
2023-05-02T02:32:54.702Z,6.50
2023-05-02T02:35:21.449Z,6.50
2023-05-02T02:38:17.683Z,6.40
2023-05-02T02:40:46.136Z,6.40
2023-05-02T02:43:13.202Z,6.40
2023-05-02T02:46:00.225Z,6.50
2023-05-02T02:48:28.081Z,6.40
2023-05-02T02:51:04.106Z,6.40
2023-05-02T02:53:54.138Z,6.40
2023-05-02T02:56:26.704Z,6.40
2023-05-02T02:58:59.742Z,6.40
2023-05-02T03:01:27.865Z,6.30
2023-05-02T03:03:54.843Z,6.30
2023-05-02T03:06:21.644Z,6.30
2023-05-02T03:08:48.362Z,6.30
2023-05-02T03:11:15.072Z,6.40
2023-05-02T03:13:41.963Z,6.50
2023-05-02T03:16:11.567Z,6.50
2023-05-02T03:18:38.499Z,6.50
2023-05-02T03:21:05.212Z,6.50
2023-05-02T03:23:31.837Z,6.50
2023-05-02T03:25:58.523Z,6.40
2023-05-02T03:28:25.187Z,6.30
2023-05-02T03:30:51.911Z,6.30
2023-05-02T03:33:18.897Z,6.20
2023-05-02T03:35:45.539Z,6.10
2023-05-02T03:38:12.162Z,6.10
2023-05-02T03:40:38.767Z,6.00
2023-05-02T03:43:05.525Z,6.00
2023-05-02T03:45:32.277Z,6.00
2023-05-02T03:47:58.978Z,6.10
2023-05-02T03:50:25.821Z,6.00
2023-05-02T03:52:52.948Z,6.00
2023-05-02T03:55:19.741Z,6.00
2023-05-02T03:57:46.634Z,6.00
2023-05-02T04:00:13.549Z,6.00
2023-05-02T04:02:40.463Z,6.10
2023-05-02T04:05:08.703Z,6.10
2023-05-02T04:07:35.635Z,6.10
2023-05-02T04:10:02.576Z,6.10
2023-05-02T04:12:29.573Z,6.10
2023-05-02T04:14:56.242Z,6.10
2023-05-02T04:17:22.955Z,6.10
2023-05-02T04:19:49.605Z,6.10
2023-05-02T04:22:16.294Z,6.00
2023-05-02T04:24:42.978Z,6.20
2023-05-02T04:27:09.691Z,6.10
2023-05-02T04:29:36.702Z,6.10
2023-05-02T04:32:03.516Z,6.10
2023-05-02T04:34:30.338Z,6.20
2023-05-02T04:36:57.007Z,6.20
2023-05-02T04:39:23.699Z,6.20
2023-05-02T04:41:50.448Z,6.20
2023-05-02T04:44:17.181Z,6.30
2023-05-02T04:46:44.828Z,6.40
2023-05-02T04:49:12.192Z,6.40
2023-05-02T04:51:38.842Z,6.40
2023-05-02T04:54:05.649Z,6.50
2023-05-02T04:56:32.303Z,6.60
2023-05-02T04:58:59.105Z,6.70
2023-05-02T05:01:28.026Z,6.80
2023-05-02T05:03:55.169Z,6.90
2023-05-02T05:06:22.713Z,7.00
2023-05-02T05:08:49.552Z,7.00
2023-05-02T05:11:16.346Z,7.30
2023-05-02T05:13:43.046Z,7.50
2023-05-02T05:16:09.761Z,7.70
2023-05-02T05:18:40.808Z,7.90
2023-05-02T05:21:08.197Z,8.30
2023-05-02T05:23:35.562Z,9.00
2023-05-02T05:26:09.482Z,9.90
2023-05-02T05:28:36.138Z,10.50
2023-05-02T05:31:07.321Z,10.60
2023-05-02T05:33:34.505Z,10.70
2023-05-02T05:36:07.728Z,10.80
2023-05-02T05:38:34.839Z,11.00
2023-05-02T05:41:01.955Z,11.30
2023-05-02T05:43:29.183Z,11.60
2023-05-02T05:45:56.159Z,12.20
2023-05-02T05:48:23.358Z,12.60
2023-05-02T05:50:52.014Z,12.40
2023-05-02T05:53:19.605Z,12.10
2023-05-02T05:55:46.370Z,11.60
2023-05-02T05:58:13.079Z,11.40
2023-05-02T06:00:40.242Z,11.20
2023-05-02T06:03:09.585Z,11.10
2023-05-02T06:05:36.925Z,11.10
2023-05-02T06:08:03.680Z,11.10
2023-05-02T06:10:31.244Z,11.20
2023-05-02T06:12:58.003Z,11.30
2023-05-02T06:15:24.663Z,11.60
2023-05-02T06:17:52.046Z,11.70
2023-05-02T06:20:18.965Z,12.50
2023-05-02T06:22:46.228Z,13.00
2023-05-02T06:25:13.095Z,13.60
2023-05-02T06:27:39.848Z,13.60
2023-05-02T06:30:06.852Z,13.30
2023-05-02T06:32:33.653Z,13.20
2023-05-02T06:35:00.485Z,12.70
2023-05-02T06:37:27.118Z,12.50
2023-05-02T06:39:53.822Z,12.50
2023-05-02T06:42:20.534Z,12.50
2023-05-02T06:44:47.224Z,12.20
2023-05-02T06:47:14.091Z,12.40
2023-05-02T06:49:40.926Z,12.40
2023-05-02T06:52:07.670Z,12.40
2023-05-02T06:54:34.261Z,12.40
2023-05-02T06:57:02.163Z,12.30
2023-05-02T06:59:28.907Z,12.30
2023-05-02T07:01:55.544Z,12.40
2023-05-02T07:04:22.454Z,12.60
2023-05-02T07:06:49.206Z,12.80
2023-05-02T07:09:16.440Z,12.90
2023-05-02T07:11:43.100Z,13.00
2023-05-02T07:14:10.013Z,13.10
2023-05-02T07:16:36.847Z,13.00
2023-05-02T07:19:06.614Z,13.20
2023-05-02T07:21:33.688Z,13.30
2023-05-02T07:24:01.179Z,13.30
2023-05-02T07:26:28.353Z,13.40
2023-05-02T07:28:55.089Z,13.30
2023-05-02T07:31:21.738Z,13.20
2023-05-02T07:33:48.426Z,13.30
2023-05-02T07:36:15.272Z,13.40
2023-05-02T07:38:42.003Z,13.30
2023-05-02T07:41:08.712Z,13.20
2023-05-02T07:43:35.426Z,13.20
2023-05-02T07:46:06.551Z,13.20
2023-05-02T07:48:34.146Z,13.20
2023-05-02T07:51:07.715Z,13.20
2023-05-02T07:53:34.434Z,13.40
2023-05-02T07:56:01.210Z,13.60
2023-05-02T07:58:28.145Z,13.60
2023-05-02T08:00:54.835Z,13.70
2023-05-02T08:03:23.632Z,13.60
2023-05-02T08:05:52.405Z,13.40
2023-05-02T08:08:19.372Z,13.40
2023-05-02T08:10:46.257Z,13.60
2023-05-02T08:13:13.263Z,13.70
2023-05-02T08:15:40.028Z,13.70
2023-05-02T08:18:07.203Z,14.00
2023-05-02T08:20:33.970Z,14.00
2023-05-02T08:23:00.768Z,14.20
2023-05-02T08:25:27.437Z,14.40
2023-05-02T08:27:54.092Z,14.50
2023-05-02T08:30:20.854Z,14.50
2023-05-02T08:32:47.645Z,14.40
2023-05-02T08:35:14.303Z,14.40
2023-05-02T08:37:40.964Z,14.50
2023-05-02T08:40:11.458Z,14.70
2023-05-02T08:42:41.293Z,14.60
2023-05-02T08:45:08.635Z,14.50
2023-05-02T08:47:36.345Z,14.50
2023-05-02T08:50:03.749Z,14.70
2023-05-02T08:52:32.670Z,14.40
2023-05-02T08:55:01.722Z,14.20
2023-05-02T08:57:31.868Z,14.20
2023-05-02T08:59:58.759Z,14.00
2023-05-02T09:02:39.538Z,14.10
2023-05-02T09:05:07.734Z,14.20
2023-05-02T09:07:49.716Z,14.10
2023-05-02T09:10:16.482Z,14.20
2023-05-02T09:12:43.586Z,14.50
2023-05-02T09:15:14.603Z,14.50
2023-05-02T09:17:45.523Z,14.40
2023-05-02T09:20:12.996Z,14.70
2023-05-02T09:22:40.123Z,15.00
2023-05-02T09:25:07.489Z,15.20
2023-05-02T09:27:54.695Z,15.00
2023-05-02T09:30:22.509Z,15.20
2023-05-02T09:32:54.032Z,14.90
2023-05-02T09:35:24.426Z,15.00
2023-05-02T09:37:55.131Z,15.20
2023-05-02T09:40:23.146Z,15.40
2023-05-02T09:42:50.334Z,15.40
2023-05-02T09:45:20.928Z,15.70
2023-05-02T09:47:47.993Z,16.10
2023-05-02T09:50:35.173Z,16.20
2023-05-02T09:53:06.112Z,16.40
2023-05-02T09:55:32.888Z,16.10
2023-05-02T09:58:01.737Z,16.40
2023-05-02T10:00:45.110Z,16.50
2023-05-02T10:03:14.294Z,16.40
2023-05-02T10:05:41.585Z,16.30
2023-05-02T10:08:09.107Z,16.20
2023-05-02T10:10:36.929Z,16.50
2023-05-02T10:13:04.070Z,17.10
2023-05-02T10:15:34.629Z,17.10
2023-05-02T10:18:05.418Z,17.50
2023-05-02T10:20:35.645Z,18.20
2023-05-02T10:23:02.296Z,18.70
2023-05-02T10:25:29.925Z,19.10
2023-05-02T10:27:58.465Z,19.30
2023-05-02T10:30:26.031Z,19.60
2023-05-02T10:32:55.782Z,20.10
2023-05-02T10:35:23.116Z,19.60
2023-05-02T10:37:50.403Z,19.30
2023-05-02T10:40:18.202Z,18.70
2023-05-02T10:42:46.428Z,18.70
2023-05-02T10:45:29.459Z,18.40
2023-05-02T10:48:14.384Z,18.60
2023-05-02T10:50:47.319Z,18.90
2023-05-02T10:53:33.500Z,19.00
2023-05-02T10:56:09.033Z,19.40
2023-05-02T10:58:35.720Z,20.00
2023-05-02T11:01:21.974Z,20.00
2023-05-02T11:03:57.865Z,20.40
2023-05-02T11:06:28.363Z,20.40
2023-05-02T11:09:14.507Z,20.70
2023-05-02T11:11:41.535Z,20.50
2023-05-02T11:14:09.107Z,20.60
2023-05-02T11:16:54.777Z,21.00
2023-05-02T11:19:21.520Z,21.00
2023-05-02T11:21:48.382Z,20.60
2023-05-02T11:24:33.829Z,20.50
2023-05-02T11:27:19.166Z,20.50
2023-05-02T11:30:13.737Z,20.50
2023-05-02T11:32:44.051Z,20.90
2023-05-02T11:35:32.823Z,21.00
2023-05-02T11:38:00.654Z,21.10
2023-05-02T11:40:28.206Z,21.00
2023-05-02T11:42:57.065Z,20.50
2023-05-02T11:45:33.407Z,20.50
2023-05-02T11:48:00.265Z,20.40
2023-05-02T11:50:27.736Z,20.20
2023-05-02T11:52:54.446Z,20.20
2023-05-02T11:55:21.085Z,19.70
2023-05-02T11:57:47.724Z,20.40
2023-05-02T12:00:15.351Z,20.50
2023-05-02T12:02:42.110Z,20.80
2023-05-02T12:05:09.955Z,21.30
2023-05-02T12:07:41.176Z,20.40
2023-05-02T12:10:08.496Z,20.30
2023-05-02T12:12:35.669Z,20.20
2023-05-02T12:15:06.331Z,20.30
2023-05-02T12:17:34.781Z,20.30
2023-05-02T12:20:03.330Z,20.40
2023-05-02T12:22:30.144Z,20.80
2023-05-02T12:24:56.900Z,21.20
2023-05-02T12:27:23.534Z,21.10
2023-05-02T12:29:50.379Z,20.80
2023-05-02T12:32:27.804Z,20.30
2023-05-02T12:34:54.551Z,20.00
2023-05-02T12:37:24.623Z,19.80
2023-05-02T12:39:51.687Z,19.90
2023-05-02T12:42:22.248Z,20.20
2023-05-02T12:44:52.268Z,20.20
2023-05-02T12:47:19.644Z,20.40
2023-05-02T12:49:53.062Z,20.80
2023-05-02T12:52:38.710Z,21.30
2023-05-02T12:55:18.313Z,21.50
2023-05-02T12:57:45.320Z,21.30
2023-05-02T13:00:12.670Z,21.50
2023-05-02T13:02:39.423Z,21.30
2023-05-02T13:05:18.724Z,21.90
2023-05-02T13:07:45.810Z,22.30
2023-05-02T13:10:12.985Z,22.10
2023-05-02T13:12:39.842Z,21.80
2023-05-02T13:15:07.361Z,21.50
2023-05-02T13:17:34.483Z,21.10
2023-05-02T13:20:02.479Z,21.10
2023-05-02T13:22:29.559Z,21.10
2023-05-02T13:24:56.402Z,20.60
2023-05-02T13:27:23.643Z,20.50
2023-05-02T13:29:50.494Z,20.40
2023-05-02T13:32:17.267Z,20.60
2023-05-02T13:34:44.347Z,20.20
2023-05-02T13:37:11.149Z,20.30
2023-05-02T13:39:37.773Z,20.60
2023-05-02T13:42:05.962Z,20.30
2023-05-02T13:44:32.991Z,20.00
2023-05-02T13:46:59.635Z,20.10
2023-05-02T13:49:26.462Z,19.80
2023-05-02T13:51:53.389Z,19.90
2023-05-02T13:54:20.056Z,19.70
2023-05-02T13:56:46.703Z,19.60
2023-05-02T13:59:13.363Z,19.50
2023-05-02T14:01:43.029Z,19.70
2023-05-02T14:04:09.927Z,19.60
2023-05-02T14:06:36.760Z,20.00
2023-05-02T14:09:03.903Z,20.00
2023-05-02T14:11:30.659Z,19.60
2023-05-02T14:13:58.350Z,19.00
2023-05-02T14:16:25.305Z,18.80
2023-05-02T14:18:51.957Z,18.70
2023-05-02T14:21:18.593Z,18.80
2023-05-02T14:23:45.451Z,19.00
2023-05-02T14:26:12.807Z,19.10
2023-05-02T14:28:40.428Z,19.70
2023-05-02T14:31:07.455Z,19.60
2023-05-02T14:33:34.190Z,19.90
2023-05-02T14:36:00.848Z,20.20
2023-05-02T14:38:27.598Z,19.50
2023-05-02T14:40:55.062Z,19.90
2023-05-02T14:43:21.777Z,20.00
2023-05-02T14:45:48.549Z,20.40
2023-05-02T14:48:17.384Z,20.10
2023-05-02T14:50:44.310Z,19.90
2023-05-02T14:53:12.119Z,19.90
2023-05-02T14:55:39.626Z,20.10
2023-05-02T14:58:08.800Z,20.20
2023-05-02T15:00:37.788Z,19.80
2023-05-02T15:03:07.393Z,19.90
2023-05-02T15:05:36.094Z,19.90
2023-05-02T15:08:02.781Z,19.80
2023-05-02T15:10:29.485Z,19.50
2023-05-02T15:12:56.305Z,19.50
2023-05-02T15:15:25.145Z,19.70
2023-05-02T15:17:52.034Z,19.70
2023-05-02T15:20:18.809Z,19.40
2023-05-02T15:22:45.495Z,19.10
2023-05-02T15:25:12.300Z,18.80
2023-05-02T15:27:39.058Z,19.00
2023-05-02T15:30:08.741Z,18.90
2023-05-02T15:32:35.709Z,18.70
2023-05-02T15:35:04.233Z,18.60
2023-05-02T15:37:30.960Z,18.60
2023-05-02T15:39:57.618Z,18.50
2023-05-02T15:42:24.341Z,18.40
2023-05-02T15:44:51.393Z,18.40
2023-05-02T15:47:19.611Z,18.60
2023-05-02T15:49:48.181Z,18.80
2023-05-02T15:52:15.044Z,19.00
2023-05-02T15:54:43.073Z,19.00
2023-05-02T15:57:12.609Z,19.10
2023-05-02T15:59:39.346Z,19.10
2023-05-02T16:02:06.729Z,19.20
2023-05-02T16:04:35.088Z,19.00
2023-05-02T16:07:02.215Z,18.90
2023-05-02T16:09:31.155Z,18.90
2023-05-02T16:11:57.998Z,19.00
2023-05-02T16:14:26.205Z,19.10
2023-05-02T16:16:52.839Z,19.10
2023-05-02T16:19:19.503Z,19.00
2023-05-02T16:21:46.359Z,19.00
2023-05-02T16:24:13.263Z,18.80
2023-05-02T16:26:40.173Z,19.00
2023-05-02T16:29:06.779Z,18.90
2023-05-02T16:31:33.613Z,18.80
2023-05-02T16:34:00.363Z,18.50
2023-05-02T16:36:27.840Z,18.40
2023-05-02T16:38:54.465Z,18.20
2023-05-02T16:41:21.470Z,18.20
2023-05-02T16:43:49.172Z,17.70
2023-05-02T16:46:16.242Z,17.50
2023-05-02T16:48:42.921Z,17.50
2023-05-02T16:51:09.532Z,17.50
2023-05-02T16:53:36.225Z,17.60
2023-05-02T16:56:02.904Z,17.40
2023-05-02T16:58:29.650Z,17.30
2023-05-02T17:00:56.464Z,17.20
2023-05-02T17:03:23.185Z,17.10
2023-05-02T17:05:49.935Z,17.10
2023-05-02T17:08:16.973Z,17.10
2023-05-02T17:10:48.448Z,16.90
2023-05-02T17:13:15.179Z,16.90
2023-05-02T17:15:42.010Z,16.90
2023-05-02T17:18:08.811Z,17.00
2023-05-02T17:20:36.076Z,17.00
2023-05-02T17:23:02.958Z,16.90
2023-05-02T17:25:30.578Z,16.90
2023-05-02T17:27:57.229Z,16.90
2023-05-02T17:30:25.189Z,16.80
2023-05-02T17:32:51.945Z,16.80
2023-05-02T17:35:18.784Z,16.80
2023-05-02T17:37:45.613Z,16.80
2023-05-02T17:40:12.502Z,16.90
2023-05-02T17:42:39.192Z,16.90
2023-05-02T17:45:07.322Z,16.90
2023-05-02T17:47:34.128Z,17.00
2023-05-02T17:50:04.666Z,17.00
2023-05-02T17:52:33.083Z,17.00
2023-05-02T17:54:59.693Z,17.00
2023-05-02T17:57:26.791Z,17.00
2023-05-02T17:59:56.624Z,16.90
2023-05-02T18:02:23.985Z,16.80
2023-05-02T18:04:50.743Z,16.80
2023-05-02T18:07:23.677Z,16.70
2023-05-02T18:09:51.812Z,16.50
2023-05-02T18:12:18.793Z,16.40
2023-05-02T18:14:45.696Z,16.30
2023-05-02T18:17:12.780Z,16.20
2023-05-02T18:19:39.620Z,16.10
2023-05-02T18:22:06.616Z,16.00
2023-05-02T18:24:33.372Z,15.90
2023-05-02T18:27:00.084Z,15.70
2023-05-02T18:29:26.855Z,15.50
2023-05-02T18:31:54.289Z,15.30
2023-05-02T18:34:21.108Z,15.10
2023-05-02T18:36:47.794Z,14.90
2023-05-02T18:39:14.616Z,14.70
2023-05-02T18:41:41.332Z,14.40
2023-05-02T18:44:10.189Z,14.20
2023-05-02T18:46:36.830Z,14.00
2023-05-02T18:49:03.543Z,13.70
2023-05-02T18:51:30.246Z,13.50
2023-05-02T18:53:56.904Z,13.40
2023-05-02T18:56:24.378Z,13.30
2023-05-02T18:58:54.755Z,13.20
2023-05-02T19:01:22.002Z,13.00
2023-05-02T19:03:49.161Z,12.80
2023-05-02T19:06:19.132Z,12.60
2023-05-02T19:08:46.222Z,12.50
2023-05-02T19:11:12.957Z,12.40
2023-05-02T19:13:39.748Z,12.30
2023-05-02T19:16:10.066Z,12.20
2023-05-02T19:18:36.785Z,12.10
2023-05-02T19:21:13.741Z,12.10
2023-05-02T19:23:41.540Z,12.10
2023-05-02T19:26:12.034Z,12.00
2023-05-02T19:28:38.911Z,12.10
2023-05-02T19:31:12.377Z,12.10
2023-05-02T19:33:39.371Z,12.10
2023-05-02T19:36:07.182Z,12.00
2023-05-02T19:38:34.370Z,11.90
2023-05-02T19:41:01.328Z,11.90
2023-05-02T19:43:27.981Z,11.70
2023-05-02T19:45:54.757Z,11.70
2023-05-02T19:48:22.889Z,11.50
2023-05-02T19:50:49.802Z,11.50
2023-05-02T19:53:16.479Z,11.50
2023-05-02T19:55:43.251Z,11.40
2023-05-02T19:58:10.122Z,11.20
2023-05-02T20:00:37.283Z,11.30
2023-05-02T20:03:04.748Z,11.20
2023-05-02T20:05:31.441Z,11.10
2023-05-02T20:07:59.015Z,11.10
2023-05-02T20:10:25.794Z,11.10
2023-05-02T20:12:52.411Z,11.10
2023-05-02T20:15:19.093Z,11.10
2023-05-02T20:17:45.891Z,11.10
2023-05-02T20:20:12.761Z,11.00
2023-05-02T20:22:42.548Z,11.00
2023-05-02T20:25:11.502Z,11.00
2023-05-02T20:27:38.234Z,11.00
2023-05-02T20:30:05.289Z,10.90
2023-05-02T20:32:31.999Z,10.90
2023-05-02T20:34:58.647Z,10.90
2023-05-02T20:37:25.824Z,10.80
2023-05-02T20:39:52.535Z,10.70
2023-05-02T20:42:23.264Z,10.60
2023-05-02T20:44:53.525Z,10.60
2023-05-02T20:47:20.230Z,10.50
2023-05-02T20:49:47.312Z,10.50
2023-05-02T20:52:14.617Z,10.30
2023-05-02T20:54:42.371Z,10.30
2023-05-02T20:57:09.054Z,10.20
2023-05-02T20:59:35.862Z,10.10
2023-05-02T21:02:02.791Z,10.00
2023-05-02T21:04:29.626Z,10.00
2023-05-02T21:06:56.895Z,9.90
2023-05-02T21:09:24.177Z,9.80
2023-05-02T21:11:50.829Z,9.70
2023-05-02T21:14:17.651Z,9.70
2023-05-02T21:16:44.407Z,9.60
2023-05-02T21:19:11.107Z,9.50
2023-05-02T21:21:37.778Z,9.50
2023-05-02T21:24:04.634Z,9.40
2023-05-02T21:26:31.658Z,9.40
2023-05-02T21:28:58.298Z,9.30
2023-05-02T21:31:25.080Z,9.30
2023-05-02T21:33:51.801Z,9.20
2023-05-02T21:36:18.510Z,9.10
2023-05-02T21:38:45.555Z,9.00
2023-05-02T21:41:12.268Z,8.90
2023-05-02T21:43:39.660Z,8.90
2023-05-02T21:46:06.688Z,8.80
2023-05-02T21:48:33.673Z,8.80
2023-05-02T21:51:00.316Z,8.70
2023-05-02T21:53:27.293Z,8.60
2023-05-02T21:55:54.728Z,8.50
2023-05-02T21:58:21.444Z,8.50
2023-05-02T22:00:48.152Z,8.40
2023-05-02T22:03:14.992Z,8.30
2023-05-02T22:05:41.946Z,8.20
2023-05-02T22:08:09.341Z,8.10
2023-05-02T22:10:37.863Z,8.10
2023-05-02T22:13:05.372Z,8.00
2023-05-02T22:15:34.202Z,7.90
2023-05-02T22:18:01.645Z,7.80
2023-05-02T22:20:28.388Z,7.80
2023-05-02T22:22:55.127Z,7.70
2023-05-02T22:25:21.888Z,7.70
2023-05-02T22:27:48.629Z,7.60
2023-05-02T22:30:15.367Z,7.50
2023-05-02T22:32:42.056Z,7.50
2023-05-02T22:35:09.043Z,7.40
2023-05-02T22:37:35.819Z,7.40
2023-05-02T22:40:03.461Z,7.50
2023-05-02T22:42:30.576Z,7.40
2023-05-02T22:44:57.292Z,7.40
2023-05-02T22:47:24.075Z,7.40
2023-05-02T22:49:52.539Z,7.40
2023-05-02T22:52:20.752Z,7.40
2023-05-02T22:54:47.646Z,7.30
2023-05-02T22:57:14.273Z,7.30
2023-05-02T22:59:41.037Z,7.30
2023-05-02T23:02:09.763Z,7.30
2023-05-02T23:04:36.345Z,7.30
2023-05-02T23:07:03.100Z,7.30
2023-05-02T23:09:29.835Z,7.30
2023-05-02T23:11:56.560Z,7.20
2023-05-02T23:14:23.477Z,7.20
2023-05-02T23:16:50.594Z,7.20
2023-05-02T23:19:17.271Z,7.20
2023-05-02T23:21:43.980Z,7.20
2023-05-02T23:24:10.773Z,7.20
2023-05-02T23:26:37.460Z,7.20
2023-05-02T23:29:05.783Z,7.10
2023-05-02T23:31:32.928Z,7.10
2023-05-02T23:33:59.904Z,7.10
2023-05-02T23:36:27.085Z,7.10
2023-05-02T23:38:53.833Z,7.00
2023-05-02T23:41:21.346Z,7.10
2023-05-02T23:43:48.021Z,7.00
2023-05-02T23:46:14.648Z,6.90
2023-05-02T23:48:41.649Z,6.90
2023-05-02T23:51:08.352Z,6.80
2023-05-02T23:53:35.026Z,6.80
2023-05-02T23:56:01.778Z,6.70
2023-05-02T23:58:28.379Z,6.60
